Time;durP1;ratioP1;P1;durP2;ratioP2;P2;SDS_P1;SDS_P2;PMS_P1;PMS_P2;Temp;Humidity;BMP_temperature;BMP_pressure;BME280_temperature;BME280_humidity;BME280_pressure;Samples;Min_cycle;Max_cycle;Signal;HPM_P1;HPM_P2
2022/10/28 00:00:32;;;;;;;0.50;0.50;;;;;;;12.46;78.35;100708.25;5050398;28;20573;-68
2022/10/28 00:03:00;;;;;;;0.47;0.47;;;;;;;12.43;78.82;100718.59;5050352;28;20251;-67
2022/10/28 00:05:27;;;;;;;0.60;0.60;;;;;;;12.49;78.81;100734.75;5050345;28;20193;-67
2022/10/28 00:07:54;;;;;;;0.50;0.50;;;;;;;12.39;78.83;100743.50;5050411;28;20254;-67
2022/10/28 00:10:21;;;;;;;0.93;0.93;;;;;;;12.35;78.90;100736.69;5050050;28;20701;-67
2022/10/28 00:12:49;;;;;;;0.90;0.90;;;;;;;12.37;78.42;100734.97;5050114;28;20220;-68
2022/10/28 00:15:16;;;;;;;0.60;0.60;;;;;;;12.35;78.59;100735.84;5049941;28;20578;-67
2022/10/28 00:17:43;;;;;;;0.40;0.40;;;;;;;12.30;78.78;100735.09;5049577;28;20691;-67
2022/10/28 00:20:10;;;;;;;0.47;0.47;;;;;;;12.34;79.01;100739.31;5050061;28;20209;-67
2022/10/28 00:22:37;;;;;;;0.60;0.60;;;;;;;12.24;78.92;100728.31;5050195;28;20708;-67
2022/10/28 00:25:05;;;;;;;0.43;0.43;;;;;;;12.29;79.27;100731.66;5049950;28;20205;-67
2022/10/28 00:27:32;;;;;;;0.50;0.50;;;;;;;12.25;79.28;100724.00;5050544;28;20192;-68
2022/10/28 00:30:00;;;;;;;0.60;0.60;;;;;;;12.25;79.11;100724.00;5050082;28;20196;-67
2022/10/28 00:32:28;;;;;;;0.40;0.40;;;;;;;12.25;79.64;100724.84;5050097;28;20247;-67
2022/10/28 00:34:55;;;;;;;0.70;0.70;;;;;;;12.24;79.44;100730.91;5050308;28;20193;-67
2022/10/28 00:37:22;;;;;;;0.60;0.60;;;;;;;12.24;79.55;100728.31;5048987;28;20192;-67
2022/10/28 00:39:49;;;;;;;0.50;0.50;;;;;;;12.26;79.43;100731.72;5049318;28;20212;-67
2022/10/28 00:42:21;;;;;;;0.50;0.50;;;;;;;12.17;80.16;100729.28;5050042;28;20217;-67
2022/10/28 00:44:55;;;;;;;0.63;0.63;;;;;;;12.21;80.08;100727.53;5050114;28;20546;-67
2022/10/28 00:47:41;;;;;;;0.60;0.60;;;;;;;12.26;79.87;100731.72;5050249;28;20274;-67
2022/10/28 00:50:23;;;;;;;0.57;0.57;;;;;;;12.27;80.13;100736.00;5049441;28;20723;-67
2022/10/28 00:52:55;;;;;;;0.50;0.50;;;;;;;12.25;79.68;100732.56;5048418;28;20676;-67
2022/10/28 00:55:23;;;;;;;0.50;0.50;;;;;;;12.17;79.99;100731.84;5049974;28;20201;-67
2022/10/28 00:57:50;;;;;;;0.50;0.50;;;;;;;12.17;80.48;100731.84;5049885;28;20203;-67
2022/10/28 01:00:17;;;;;;;0.50;0.50;;;;;;;12.17;80.17;100737.00;5049824;28;20200;-67
2022/10/28 01:02:48;;;;;;;0.50;0.50;;;;;;;12.09;80.92;100729.41;5049708;28;20271;-67
2022/10/28 01:05:19;;;;;;;0.40;0.40;;;;;;;12.13;80.90;100730.19;5049962;28;20205;-67
2022/10/28 01:07:45;;;;;;;0.60;0.60;;;;;;;12.13;80.45;100722.50;5049785;28;20196;-67
2022/10/28 01:10:14;;;;;;;0.50;0.50;;;;;;;12.07;80.49;100727.72;5049675;28;20193;-67
2022/10/28 01:12:53;;;;;;;0.60;0.60;;;;;;;12.04;80.90;100725.22;5049655;28;20235;-67
2022/10/28 01:15:37;;;;;;;0.53;0.53;;;;;;;11.96;80.96;100730.44;5048440;28;20209;-67
2022/10/28 01:18:19;;;;;;;0.53;0.53;;;;;;;11.98;80.85;100721.00;5048468;28;20334;-67
2022/10/28 01:21:17;;;;;;;0.50;0.50;;;;;;;11.95;80.81;100726.19;5049622;28;20192;-67
2022/10/28 01:23:56;;;;;;;0.90;0.90;;;;;;;11.98;80.96;100730.44;5049320;28;20239;-68
2022/10/28 01:26:49;;;;;;;0.40;0.40;;;;;;;11.77;80.69;100699.91;5049584;28;20270;-67
2022/10/28 01:29:46;;;;;;;0.60;0.60;;;;;;;11.89;80.52;100731.41;5050160;28;20193;-67
2022/10/28 01:32:21;;;;;;;0.50;0.50;;;;;;;11.88;80.53;100734.00;5048518;28;20204;-67
2022/10/28 01:34:56;;;;;;;0.70;0.70;;;;;;;11.83;80.47;100722.94;5049752;28;20228;-67
2022/10/28 01:37:31;;;;;;;0.57;0.57;;;;;;;11.81;80.44;100722.97;5051899;28;20212;-67
2022/10/28 01:40:06;;;;;;;0.50;0.50;;;;;;;11.85;80.25;100737.47;5052160;28;20200;-67
2022/10/28 01:42:42;;;;;;;0.60;0.60;;;;;;;11.83;80.36;100739.19;5053254;28;20223;-67
2022/10/28 01:45:15;;;;;;;0.53;0.53;;;;;;;11.80;80.25;100720.41;5053174;28;20192;-67
2022/10/28 01:47:50;;;;;;;0.50;0.50;;;;;;;11.76;80.91;100736.75;5053089;28;20212;-68
2022/10/28 01:50:25;;;;;;;0.53;0.53;;;;;;;11.75;81.07;100737.63;5052720;28;20730;-67
2022/10/28 01:52:56;;;;;;;0.47;0.47;;;;;;;11.75;81.30;100735.91;5052984;28;20242;-67
2022/10/28 01:55:27;;;;;;;0.43;0.43;;;;;;;11.77;80.75;100741.00;5053236;28;20196;-67
2022/10/28 01:57:59;;;;;;;0.63;0.63;;;;;;;11.75;81.25;100741.03;5053411;28;20584;-68
2022/10/28 02:00:26;;;;;;;0.50;0.50;;;;;;;11.71;81.48;100743.66;5052345;28;20258;-67
2022/10/28 02:02:56;;;;;;;0.53;0.53;;;;;;;11.68;82.25;100741.97;5052233;28;20266;-67
2022/10/28 02:05:42;;;;;;;0.60;0.60;;;;;;;11.53;82.26;100727.56;5052543;28;20291;-67
2022/10/28 02:08:35;;;;;;;0.50;0.50;;;;;;;11.62;82.25;100744.59;5052649;28;20188;-67
2022/10/28 02:11:24;;;;;;;0.60;0.60;;;;;;;11.62;82.64;100748.88;5043862;28;20656;-67
2022/10/28 02:13:58;;;;;;;0.60;0.60;;;;;;;11.60;82.35;100751.47;5051735;28;20263;-67
2022/10/28 02:16:30;;;;;;;0.57;0.57;;;;;;;11.59;82.59;100742.09;5051226;28;20200;-67
2022/10/28 02:19:08;;;;;;;0.40;0.40;;;;;;;11.53;82.30;100748.13;5052751;28;20270;-67
2022/10/28 02:21:50;;;;;;;0.50;0.50;;;;;;;11.52;82.50;100743.03;5051921;28;20672;-67
2022/10/28 02:24:20;;;;;;;1.50;1.50;;;;;;;11.44;82.62;100744.81;5051350;28;20200;-67
2022/10/28 02:26:54;;;;;;;0.97;0.97;;;;;;;11.43;82.24;100746.56;5052514;28;20201;-67
2022/10/28 02:29:30;;;;;;;0.60;0.60;;;;;;;11.43;82.34;100741.44;5052405;28;20201;-68
2022/10/28 02:32:02;;;;;;;0.50;0.50;;;;;;;11.41;82.11;100748.28;5052477;28;20197;-67
2022/10/28 02:34:33;;;;;;;0.97;0.97;;;;;;;11.36;81.75;100739.81;5052036;28;20212;-67
2022/10/28 02:37:07;;;;;;;0.60;0.60;;;;;;;11.37;82.49;100751.75;5052873;28;20577;-67
2022/10/28 02:39:41;;;;;;;0.63;0.63;;;;;;;11.30;82.65;100744.16;5051518;28;20201;-67
2022/10/28 02:42:15;;;;;;;0.70;0.70;;;;;;;11.23;83.04;100752.78;5048581;28;20216;-68
2022/10/28 02:44:47;;;;;;;0.60;0.60;;;;;;;11.10;82.92;100741.81;5051448;28;20541;-67
2022/10/28 02:47:19;;;;;;;0.60;0.60;;;;;;;11.22;82.96;100758.78;5052195;28;20196;-67
2022/10/28 02:49:52;;;;;;;0.60;0.60;;;;;;;11.06;83.18;100740.13;5051292;28;20619;-67
2022/10/28 02:52:21;;;;;;;0.60;0.60;;;;;;;11.20;83.03;100763.94;5055841;28;20205;-67
2022/10/28 02:54:53;;;;;;;0.90;0.90;;;;;;;11.17;83.21;100758.00;5051452;28;20200;-67
2022/10/28 02:57:23;;;;;;;0.53;0.53;;;;;;;11.22;83.55;100762.19;5051975;28;20258;-67
2022/10/28 02:59:54;;;;;;;0.50;0.50;;;;;;;11.20;83.62;100758.81;5051596;28;20646;-67
2022/10/28 03:02:21;;;;;;;0.47;0.47;;;;;;;11.12;83.60;100760.59;5052155;28;20224;-67
2022/10/28 03:04:49;;;;;;;0.50;0.50;;;;;;;11.11;83.69;100764.06;5051879;28;20262;-67
2022/10/28 03:07:16;;;;;;;0.60;0.60;;;;;;;11.10;83.82;100762.34;5051476;28;20219;-67
2022/10/28 03:09:42;;;;;;;0.60;0.60;;;;;;;11.06;84.03;100758.09;5050415;28;20231;-67
2022/10/28 03:12:09;;;;;;;0.40;0.40;;;;;;;11.09;83.42;100765.75;5051240;28;20228;-67
2022/10/28 03:14:36;;;;;;;0.63;0.63;;;;;;;11.12;83.79;100770.84;5051016;28;20237;-68
2022/10/28 03:17:03;;;;;;;0.70;0.70;;;;;;;11.09;83.82;100773.47;5051547;28;20635;-67
2022/10/28 03:19:30;;;;;;;0.60;0.60;;;;;;;11.07;83.67;100772.63;5051434;28;20338;-67
2022/10/28 03:21:58;;;;;;;0.60;0.60;;;;;;;11.02;83.94;100775.25;5051247;28;20258;-67
2022/10/28 03:24:25;;;;;;;0.50;0.50;;;;;;;11.00;83.88;100778.69;5051639;28;20204;-67
2022/10/28 03:26:52;;;;;;;1.60;0.83;;;;;;;10.90;84.33;100759.97;5050656;28;20197;-67
2022/10/28 03:29:19;;;;;;;0.50;0.50;;;;;;;11.05;83.72;100771.78;5050830;28;20196;-67
2022/10/28 03:31:45;;;;;;;0.60;0.60;;;;;;;10.99;84.20;100771.84;5050931;28;20208;-68
2022/10/28 03:34:12;;;;;;;0.53;0.53;;;;;;;11.00;84.22;100773.56;5049413;28;20271;-68
2022/10/28 03:36:39;;;;;;;0.70;0.70;;;;;;;11.00;84.26;100776.13;5051193;28;20208;-68
2022/10/28 03:39:07;;;;;;;0.70;0.70;;;;;;;11.01;84.01;100785.53;5049665;28;20212;-68
2022/10/28 03:41:34;;;;;;;2.10;1.97;;;;;;;11.00;83.64;100779.53;5050319;28;20197;-67
2022/10/28 03:44:01;;;;;;;0.60;0.60;;;;;;;10.96;83.60;100772.75;5050691;28;20735;-67
2022/10/28 03:46:28;;;;;;;0.50;0.50;;;;;;;10.97;83.53;100786.41;5050810;28;20197;-67
2022/10/28 03:48:54;;;;;;;0.57;0.57;;;;;;;10.96;84.24;100784.72;5050963;28;20197;-67
2022/10/28 03:51:21;;;;;;;0.70;0.70;;;;;;;10.96;84.13;100777.00;5050370;28;20196;-67
2022/10/28 03:53:48;;;;;;;0.50;0.50;;;;;;;10.98;84.09;100777.88;5050514;28;20221;-68
2022/10/28 03:56:16;;;;;;;0.70;0.70;;;;;;;10.99;83.80;100769.28;5050584;28;20273;-67
2022/10/28 03:58:43;;;;;;;0.50;0.50;;;;;;;10.98;83.78;100777.88;5051033;28;20585;-67
2022/10/28 04:01:10;;;;;;;0.80;0.80;;;;;;;10.94;83.75;100781.31;5049948;28;20275;-67
2022/10/28 04:03:37;;;;;;;0.60;0.60;;;;;;;10.94;83.54;100778.75;5045759;28;20209;-67
2022/10/28 04:06:04;;;;;;;0.53;0.53;;;;;;;10.89;83.73;100777.94;5048314;28;20291;-67
2022/10/28 04:08:30;;;;;;;0.60;0.60;;;;;;;10.87;84.06;100774.53;5046950;28;20345;-67
2022/10/28 04:10:57;;;;;;;0.60;0.60;;;;;;;10.86;84.04;100775.41;5048337;28;20236;-66
2022/10/28 04:13:25;;;;;;;0.50;0.50;;;;;;;10.84;84.11;100784.84;5049443;28;20290;-67
2022/10/28 04:15:52;;;;;;;0.80;0.80;;;;;;;10.83;83.69;100783.13;5050713;28;20299;-68
2022/10/28 04:18:19;;;;;;;0.60;0.60;;;;;;;10.82;83.91;100781.44;5050011;28;20668;-67
2022/10/28 04:20:46;;;;;;;1.13;1.13;;;;;;;10.79;84.03;100784.03;5050491;28;20204;-67
2022/10/28 04:23:15;;;;;;;0.50;0.50;;;;;;;10.78;83.96;100783.19;5050333;28;20226;-67
2022/10/28 04:25:43;;;;;;;0.50;0.50;;;;;;;10.73;84.86;100782.34;5050407;28;20207;-67
2022/10/28 04:28:10;;;;;;;0.60;0.60;;;;;;;10.72;85.19;100790.94;5050372;28;20203;-67
2022/10/28 04:30:38;;;;;;;0.60;0.60;;;;;;;10.71;84.59;100789.22;5049832;28;20561;-67
2022/10/28 04:33:05;;;;;;;1.27;1.27;;;;;;;10.68;84.96;100783.28;5050585;28;20212;-67
2022/10/28 04:35:32;;;;;;;0.50;0.50;;;;;;;10.66;85.11;100774.75;5050194;28;20205;-68
2022/10/28 04:37:59;;;;;;;0.70;0.70;;;;;;;10.65;85.20;100778.16;5050387;28;20214;-67
2022/10/28 04:40:25;;;;;;;0.70;0.70;;;;;;;10.61;85.91;100790.16;5050129;28;20196;-67
2022/10/28 04:42:52;;;;;;;0.50;0.50;;;;;;;10.60;85.65;100774.81;5050145;28;20314;-67
2022/10/28 04:45:19;;;;;;;0.60;0.60;;;;;;;10.61;85.58;100776.47;5050033;28;20204;-67
2022/10/28 04:47:47;;;;;;;0.50;0.50;;;;;;;10.60;85.95;100774.81;5050053;28;20262;-67
2022/10/28 04:50:14;;;;;;;0.50;0.50;;;;;;;10.62;86.00;100775.63;5050178;28;20212;-67
2022/10/28 04:52:41;;;;;;;0.50;0.50;;;;;;;10.62;85.78;100770.50;5050265;28;20204;-67
2022/10/28 04:55:08;;;;;;;0.53;0.53;;;;;;;10.60;85.55;100769.69;5050478;28;20192;-67
2022/10/28 04:57:35;;;;;;;0.73;0.73;;;;;;;10.61;85.86;100776.47;5050187;28;20282;-67
2022/10/28 05:00:02;;;;;;;0.63;0.63;;;;;;;10.65;85.71;100783.28;5049382;28;20205;-67
2022/10/28 05:02:29;;;;;;;0.60;0.60;;;;;;;10.65;85.80;100778.16;5049504;28;20219;-67
2022/10/28 05:05:01;;;;;;;0.93;0.93;;;;;;;10.66;85.32;100779.88;5048346;28;20212;-67
2022/10/28 05:07:28;;;;;;;0.50;0.50;;;;;;;10.67;85.78;100779.00;5046436;28;20201;-67
2022/10/28 05:09:54;;;;;;;0.70;0.70;;;;;;;10.67;86.25;100789.25;5047398;28;20207;-67
2022/10/28 05:12:21;;;;;;;0.60;0.60;;;;;;;10.63;86.56;100796.13;5047402;28;20228;-67
2022/10/28 05:14:48;;;;;;;0.50;0.50;;;;;;;10.62;87.10;100785.88;5050415;28;20224;-67
2022/10/28 05:17:15;;;;;;;0.60;0.60;;;;;;;10.63;86.86;100795.28;5053792;28;20204;-67
2022/10/28 05:19:44;;;;;;;0.50;0.50;;;;;;;10.67;86.60;100796.94;5053756;28;20570;-68
2022/10/28 05:22:12;;;;;;;0.50;0.50;;;;;;;10.64;86.97;100802.09;5051998;28;20200;-68
2022/10/28 05:24:39;;;;;;;0.73;0.73;;;;;;;10.60;87.51;100805.56;5053628;28;20199;-67
2022/10/28 05:27:05;;;;;;;0.53;0.53;;;;;;;10.57;87.57;100806.44;5052314;28;20201;-67
2022/10/28 05:29:32;;;;;;;0.50;0.50;;;;;;;10.58;88.08;100808.13;5051324;28;20219;-67
2022/10/28 05:31:59;;;;;;;0.60;0.60;;;;;;;10.62;87.86;100811.53;5051950;28;20197;-65
2022/10/28 05:34:26;;;;;;;0.50;0.50;;;;;;;10.67;88.26;100812.34;5051349;28;20221;-65
2022/10/28 05:36:53;;;;;;;0.60;0.60;;;;;;;10.71;87.46;100814.88;5051884;28;20200;-65
2022/10/28 05:39:21;;;;;;;0.50;0.50;;;;;;;10.76;87.59;100818.25;5051776;28;20665;-65
2022/10/28 05:41:48;;;;;;;0.67;0.67;;;;;;;10.77;87.74;100817.38;5051873;28;20207;-66
2022/10/28 05:44:15;;;;;;;0.60;0.60;;;;;;;10.82;87.90;100823.34;5052104;28;20205;-66
2022/10/28 05:46:41;;;;;;;0.50;0.50;;;;;;;10.87;88.16;100830.97;5053040;28;20270;-66
2022/10/28 05:49:08;;;;;;;0.50;0.50;;;;;;;10.84;88.28;100831.00;5052250;28;20200;-65
2022/10/28 05:51:35;;;;;;;0.50;0.50;;;;;;;10.90;87.71;100833.53;5056536;28;21129;-66
2022/10/28 05:54:01;;;;;;;0.60;0.60;;;;;;;11.00;87.75;100837.72;5053337;28;20282;-66
2022/10/28 05:56:30;;;;;;;0.53;0.53;;;;;;;11.02;87.49;100831.69;5052451;28;20209;-65
2022/10/28 05:58:57;;;;;;;2.80;2.70;;;;;;;11.01;87.39;100829.16;5052525;28;20645;-65
2022/10/28 06:01:23;;;;;;;0.43;0.43;;;;;;;11.06;87.72;100829.94;5054817;28;20205;-65
2022/10/28 06:03:50;;;;;;;0.73;0.73;;;;;;;11.11;87.65;100828.22;5048053;28;20193;-65
2022/10/28 06:06:17;;;;;;;0.70;0.70;;;;;;;11.17;88.00;100835.84;5052798;28;20213;-65
2022/10/28 06:08:44;;;;;;;0.50;0.50;;;;;;;11.20;87.86;100840.09;5049294;28;20258;-66
2022/10/28 06:11:10;;;;;;;0.40;0.40;;;;;;;11.23;88.27;100840.91;5051435;28;20572;-66
2022/10/28 06:13:39;;;;;;;0.60;0.60;;;;;;;11.27;87.97;100834.91;5051389;28;20237;-68
2022/10/28 06:16:06;;;;;;;0.40;0.40;;;;;;;11.29;88.56;100834.88;5052534;28;20569;-66
2022/10/28 06:18:33;;;;;;;0.57;0.57;;;;;;;11.36;89.69;100839.94;5050371;28;20204;-66
2022/10/28 06:21:00;;;;;;;0.60;0.60;;;;;;;11.39;88.82;100847.59;5045413;28;20206;-67
2022/10/28 06:23:28;;;;;;;0.50;0.50;;;;;;;11.31;89.17;100828.84;5050720;28;20263;-68
2022/10/28 06:25:57;;;;;;;0.80;0.80;;;;;;;11.39;88.53;100847.59;5051207;28;20716;-67
2022/10/28 06:28:23;;;;;;;0.50;0.50;;;;;;;11.35;88.17;100845.94;5055099;28;20205;-68
2022/10/28 06:30:52;;;;;;;0.60;0.60;;;;;;;11.43;88.88;100844.16;5051364;28;20211;-67
2022/10/28 06:33:19;;;;;;;0.60;0.60;;;;;;;11.43;89.27;100839.00;5050509;28;20566;-67
2022/10/28 06:35:46;;;;;;;0.70;0.70;;;;;;;11.44;90.51;100835.56;5049838;28;20267;-66
2022/10/28 06:38:13;;;;;;;0.60;0.60;;;;;;;11.55;90.86;100838.88;5050836;28;20684;-69
2022/10/28 06:40:39;;;;;;;0.50;0.50;;;;;;;11.52;89.82;100848.31;5050138;28;20680;-69
2022/10/28 06:43:07;;;;;;;0.50;0.50;;;;;;;11.49;91.30;100823.53;5050287;28;20212;-69
2022/10/28 06:45:35;;;;;;;0.60;0.60;;;;;;;11.68;92.39;100839.56;5050994;28;20236;-68
2022/10/28 06:48:05;;;;;;;0.57;0.57;;;;;;;11.67;93.19;100845.56;5046802;28;20204;-68
2022/10/28 06:50:34;;;;;;;0.50;0.50;;;;;;;11.77;93.48;100848.91;5046323;28;20274;-68
2022/10/28 06:53:02;;;;;;;0.60;0.60;;;;;;;11.82;93.14;100849.72;5049487;28;20270;-68
2022/10/28 06:55:29;;;;;;;0.57;0.57;;;;;;;11.81;92.67;100832.59;5049179;28;20592;-68
2022/10/28 06:57:59;;;;;;;0.50;0.50;;;;;;;11.91;92.88;100844.47;5050306;28;20469;-69
2022/10/28 07:00:26;;;;;;;0.70;0.70;;;;;;;11.99;92.53;100851.19;5048100;28;20668;-69
2022/10/28 07:02:53;;;;;;;0.50;0.50;;;;;;;12.10;92.36;100845.94;5049882;28;20211;-66
2022/10/28 07:05:23;;;;;;;0.90;0.90;;;;;;;12.13;91.83;100848.44;5049388;28;20208;-68
2022/10/28 07:07:50;;;;;;;0.47;0.47;;;;;;;12.27;92.26;100845.69;5047374;28;21503;-69
2022/10/28 07:10:17;;;;;;;0.60;0.60;;;;;;;12.38;91.48;100839.53;5046918;28;20585;-66
2022/10/28 07:12:44;;;;;;;0.50;0.50;;;;;;;12.50;90.02;100839.34;5049366;28;20274;-67
2022/10/28 07:15:11;;;;;;;0.60;0.60;;;;;;;12.66;90.49;100836.53;5049134;28;20228;-67
2022/10/28 07:17:38;;;;;;;0.50;0.50;;;;;;;12.77;90.13;100850.06;5049877;28;20200;-67
2022/10/28 07:20:06;;;;;;;0.93;0.93;;;;;;;12.87;89.55;100838.75;5050276;28;20205;-67
2022/10/28 07:22:34;;;;;;;0.50;0.50;;;;;;;13.12;89.00;100840.91;5049114;28;20288;-68
2022/10/28 07:25:01;;;;;;;0.60;0.60;;;;;;;13.28;88.10;100831.19;5049915;28;20209;-67
2022/10/28 07:27:27;;;;;;;0.50;0.50;;;;;;;13.50;87.09;100836.81;5049744;28;20197;-67
2022/10/28 07:29:54;;;;;;;0.60;0.60;;;;;;;13.68;86.80;100837.28;5048428;28;20207;-68
2022/10/28 07:32:21;;;;;;;0.60;0.60;;;;;;;13.92;86.50;100840.25;5048964;28;20216;-67
2022/10/28 07:34:48;;;;;;;0.57;0.57;;;;;;;14.12;84.43;100844.09;5047794;28;20225;-68
2022/10/28 07:37:14;;;;;;;0.50;0.50;;;;;;;14.30;83.86;100845.44;5049008;28;20212;-68
2022/10/28 07:39:43;;;;;;;0.87;0.87;;;;;;;14.54;84.68;100837.16;5048004;28;20724;-67
2022/10/28 07:42:09;;;;;;;0.53;0.53;;;;;;;14.73;81.74;100841.88;5043216;28;20198;-68
2022/10/28 07:44:36;;;;;;;0.50;0.50;;;;;;;14.93;82.15;100837.06;5046335;28;20592;-67
2022/10/28 07:47:03;;;;;;;0.40;0.40;;;;;;;15.15;79.73;100830.50;5043923;28;20228;-69
2022/10/28 07:49:30;;;;;;;0.77;0.77;;;;;;;15.40;78.29;100841.88;5047213;28;20269;-68
2022/10/28 07:51:56;;;;;;;0.50;0.50;;;;;;;15.63;77.02;100844.69;5047420;28;20258;-68
2022/10/28 07:54:23;;;;;;;0.40;0.40;;;;;;;15.86;76.51;100850.97;5046906;28;20220;-68
2022/10/28 07:56:51;;;;;;;0.50;0.50;;;;;;;16.00;74.74;100849.66;5046433;28;20208;-67
2022/10/28 07:59:19;;;;;;;0.50;0.50;;;;;;;16.08;74.67;100827.00;5046472;28;20215;-68
2022/10/28 08:01:46;;;;;;;0.50;0.50;;;;;;;16.39;74.31;100847.59;5045455;28;20208;-67
2022/10/28 08:04:13;;;;;;;0.50;0.50;;;;;;;16.57;72.61;100841.06;5044677;28;20216;-67
2022/10/28 08:06:40;;;;;;;1.20;1.20;;;;;;;16.67;72.84;100822.56;5045343;28;20278;-68
2022/10/28 08:09:07;;;;;;;0.50;0.50;;;;;;;16.86;70.35;100832.34;5046988;28;20208;-68
2022/10/28 08:11:33;;;;;;;0.43;0.43;;;;;;;17.04;70.09;100836.91;5044626;28;20212;-68
2022/10/28 08:14:02;;;;;;;0.50;0.50;;;;;;;17.18;70.15;100829.50;5043466;28;20708;-67
2022/10/28 08:16:30;;;;;;;0.60;0.60;;;;;;;17.37;69.61;100833.16;5045301;28;20201;-68
2022/10/28 08:18:56;;;;;;;0.50;0.50;;;;;;;17.49;69.01;100822.34;5044323;28;20232;-68
2022/10/28 08:21:25;;;;;;;0.60;0.60;;;;;;;17.68;68.56;100836.38;5046078;28;20212;-68
2022/10/28 08:23:53;;;;;;;0.50;0.50;;;;;;;17.78;67.64;100816.97;5046055;28;20410;-67
2022/10/28 08:26:21;;;;;;;0.50;0.50;;;;;;;18.07;66.32;100828.84;5047949;28;20201;-67
2022/10/28 08:28:47;;;;;;;0.40;0.40;;;;;;;18.20;65.60;100824.03;5046906;28;20258;-68
2022/10/28 08:31:15;;;;;;;0.47;0.47;;;;;;;18.26;64.85;100816.00;5046896;28;20604;-68
2022/10/28 08:33:44;;;;;;;0.30;0.30;;;;;;;18.41;64.21;100823.19;5046950;28;20266;-68
2022/10/28 08:36:12;;;;;;;0.50;0.50;;;;;;;18.50;63.10;100822.88;5046001;28;20631;-68
2022/10/28 08:38:39;;;;;;;0.50;0.50;;;;;;;18.41;64.66;100802.44;5045951;28;20242;-68
2022/10/28 08:41:17;;;;;;;0.43;0.43;;;;;;;18.73;64.37;100824.53;5045668;28;20227;-68
2022/10/28 08:44:00;;;;;;;0.60;0.60;;;;;;;18.86;62.54;100815.31;5047241;28;20239;-68
2022/10/28 08:46:45;;;;;;;0.43;0.43;;;;;;;19.01;65.10;100821.63;5050611;28;20643;-69
2022/10/28 08:49:16;;;;;;;0.50;0.50;;;;;;;19.17;63.18;100814.84;5054293;28;20204;-68
2022/10/28 08:51:50;;;;;;;0.43;0.43;;;;;;;19.28;63.40;100812.66;5053790;28;20201;-69
2022/10/28 08:54:24;;;;;;;0.40;0.40;;;;;;;19.43;62.07;100822.41;5051072;28;20231;-68
2022/10/28 08:56:53;;;;;;;0.67;0.67;;;;;;;19.60;61.97;100817.31;5053590;28;20208;-68
2022/10/28 08:59:25;;;;;;;0.50;0.50;;;;;;;19.64;61.80;100813.66;5054225;28;20205;-69
2022/10/28 09:01:58;;;;;;;0.40;0.40;;;;;;;19.71;61.06;100809.84;5051361;28;20589;-68
2022/10/28 09:04:30;;;;;;;0.43;0.43;;;;;;;19.74;61.65;100816.69;5052718;28;20220;-68
2022/10/28 09:06:57;;;;;;;0.40;0.40;;;;;;;19.88;60.11;100809.94;5050331;28;20227;-68
2022/10/28 09:09:24;;;;;;;0.40;0.40;;;;;;;19.92;59.49;100798.47;5048830;28;20278;-68
2022/10/28 09:12:07;;;;;;;0.50;0.50;;;;;;;20.11;61.16;100789.78;5048485;28;20229;-68
2022/10/28 09:14:47;;;;;;;0.50;0.50;;;;;;;20.17;60.69;100792.09;5047325;28;20233;-68
2022/10/28 09:17:19;;;;;;;0.50;0.50;;;;;;;20.19;60.38;100787.69;5050802;28;20217;-68
2022/10/28 09:19:49;;;;;;;0.50;0.50;;;;;;;20.27;60.28;100786.41;5049697;28;20201;-67
2022/10/28 09:22:25;;;;;;;0.53;0.53;;;;;;;20.32;59.22;100789.63;5040784;28;20214;-68
2022/10/28 09:24:54;;;;;;;0.50;0.50;;;;;;;20.28;60.53;100769.03;5042235;28;20202;-72
2022/10/28 09:27:51;;;;;;;0.40;0.40;;;;;;;20.46;60.41;100781.16;5050803;28;20212;-68
2022/10/28 09:30:28;;;;;;;0.40;0.40;;;;;;;20.49;60.81;100775.78;5046262;28;20565;-68
2022/10/28 09:33:09;;;;;;;0.40;0.40;;;;;;;20.66;58.67;100775.81;5051966;28;20219;-68
2022/10/28 09:35:40;;;;;;;0.40;0.40;;;;;;;20.79;57.69;100768.22;5051654;28;20284;-68
2022/10/28 09:38:15;;;;;;;0.63;0.63;;;;;;;20.72;58.05;100759.88;5051173;28;20662;-68
2022/10/28 09:40:49;;;;;;;0.50;0.50;;;;;;;20.78;59.09;100756.09;5050636;28;20595;-67
2022/10/28 09:43:24;;;;;;;0.50;0.50;;;;;;;20.89;59.40;100761.63;5049593;28;20207;-67
2022/10/28 09:45:55;;;;;;;0.50;0.50;;;;;;;20.92;58.49;100754.50;5049975;28;20210;-68
2022/10/28 09:48:28;;;;;;;0.40;0.40;;;;;;;20.93;57.96;100756.19;5052080;28;20659;-68
2022/10/28 09:50:57;;;;;;;0.47;0.47;;;;;;;20.89;58.63;100751.19;5049244;28;20204;-68
2022/10/28 09:53:32;;;;;;;0.40;0.40;;;;;;;20.99;58.95;100747.19;5048721;28;20383;-68
2022/10/28 09:55:59;;;;;;;0.40;0.40;;;;;;;21.03;57.82;100740.91;5048115;28;20694;-68
2022/10/28 09:58:26;;;;;;;0.67;0.67;;;;;;;21.13;57.70;100730.88;5048766;28;20208;-67
2022/10/28 10:00:53;;;;;;;0.40;0.40;;;;;;;21.23;58.41;100737.25;5050328;28;20207;-68
2022/10/28 10:03:20;;;;;;;0.60;0.60;;;;;;;21.33;56.72;100739.31;5050775;28;20679;-67
2022/10/28 10:05:51;;;;;;;0.43;0.43;;;;;;;21.41;57.14;100736.31;5051776;28;20426;-67
2022/10/28 10:08:21;;;;;;;0.80;0.80;;;;;;;21.52;56.92;100728.72;5049027;28;20529;-66
2022/10/28 10:10:50;;;;;;;0.43;0.43;;;;;;;21.71;56.34;100724.19;5052691;28;20261;-67
2022/10/28 10:13:22;;;;;;;0.40;0.40;;;;;;;21.83;54.13;100720.91;5050242;28;20459;-74
2022/10/28 10:15:53;;;;;;;0.40;0.40;;;;;;;22.00;52.94;100708.72;5046174;28;20224;-76
2022/10/28 10:18:24;;;;;;;0.40;0.40;;;;;;;22.05;52.04;100714.53;5051267;28;20203;-75
2022/10/28 10:20:57;;;;;;;0.30;0.30;;;;;;;22.17;51.73;100712.03;5051463;28;20916;-75
2022/10/28 10:23:28;;;;;;;0.40;0.40;;;;;;;22.22;52.50;100703.97;5051721;28;20203;-77
2022/10/28 10:25:58;;;;;;;0.30;0.30;;;;;;;22.23;52.35;100703.03;5051117;28;20634;-78
2022/10/28 10:28:27;;;;;;;0.40;0.40;;;;;;;22.30;51.99;100701.72;5051930;28;20202;-76
2022/10/28 10:30:56;;;;;;;0.40;0.40;;;;;;;22.29;50.98;100695.69;5050069;28;20648;-76
2022/10/28 10:33:27;;;;;;;0.53;0.53;;;;;;;22.32;49.96;100700.75;5051200;28;20204;-74
2022/10/28 10:35:59;;;;;;;0.40;0.40;;;;;;;22.32;50.04;100698.13;5049343;28;20221;-76
2022/10/28 10:38:27;;;;;;;0.20;0.20;;;;;;;22.28;51.34;100693.16;5048641;28;20201;-75
2022/10/28 10:40:54;;;;;;;0.30;0.30;;;;;;;22.24;49.15;100689.88;5049544;28;20282;-75
2022/10/28 10:43:24;;;;;;;0.30;0.30;;;;;;;22.27;47.85;100691.47;5052064;28;20676;-74
2022/10/28 10:45:59;;;;;;;0.30;0.30;;;;;;;22.06;47.30;100690.09;5052449;28;20626;-75
2022/10/28 10:48:26;;;;;;;0.37;0.37;;;;;;;22.05;48.06;100686.63;5051990;28;20234;-75
2022/10/28 10:50:54;;;;;;;0.33;0.33;;;;;;;22.03;49.77;100678.06;5051384;28;20203;-75
2022/10/28 10:53:25;;;;;;;0.20;0.20;;;;;;;22.06;48.27;100677.03;5051502;28;20204;-76
2022/10/28 10:55:59;;;;;;;0.40;0.40;;;;;;;22.06;48.10;100667.44;5051722;28;20224;-76
2022/10/28 10:58:30;;;;;;;0.30;0.30;;;;;;;22.04;46.89;100668.44;5050551;28;20204;-75
2022/10/28 11:00:59;;;;;;;0.37;0.37;;;;;;;22.08;49.63;100672.56;5051560;28;20197;-75
2022/10/28 11:03:30;;;;;;;0.30;0.30;;;;;;;22.04;47.58;100663.19;5051768;28;20208;-75
2022/10/28 11:05:58;;;;;;;0.50;0.50;;;;;;;22.12;47.90;100671.44;5051592;28;20584;-75
2022/10/28 11:08:33;;;;;;;0.40;0.40;;;;;;;22.21;47.67;100665.69;5051364;28;20208;-75
2022/10/28 11:11:07;;;;;;;0.40;0.40;;;;;;;22.27;47.64;100673.16;5048642;28;20199;-75
2022/10/28 11:13:35;;;;;;;0.47;0.47;;;;;;;22.35;47.24;100670.97;5050609;28;20241;-76
2022/10/28 11:16:04;;;;;;;0.40;0.40;;;;;;;22.38;45.93;100655.09;5050527;28;20600;-76
2022/10/28 11:18:41;;;;;;;0.30;0.30;;;;;;;22.27;45.32;100647.03;5050520;28;20626;-76
2022/10/28 11:21:30;;;;;;;0.30;0.30;;;;;;;22.38;44.71;100663.78;5051214;28;20286;-76
2022/10/28 11:24:13;;;;;;;0.30;0.30;;;;;;;22.37;44.67;100661.25;5048570;28;20653;-75
2022/10/28 11:26:50;;;;;;;0.40;0.40;;;;;;;22.42;45.02;100660.03;5050037;28;20208;-75
2022/10/28 11:29:18;;;;;;;0.30;0.30;;;;;;;22.47;45.16;100658.00;5051074;28;20261;-75
2022/10/28 11:32:08;;;;;;;0.30;0.30;;;;;;;22.57;43.86;100653.09;5051355;28;20593;-75
2022/10/28 11:34:56;;;;;;;0.33;0.33;;;;;;;22.63;44.05;100660.56;5050187;28;20205;-75
2022/10/28 11:37:32;;;;;;;0.37;0.37;;;;;;;22.47;43.77;100646.72;5050506;28;20250;-76